^^
Datos históricos de la estación: Murcia-Puente Tocinos
Diario Informe para Diciembre 13, 2019 Unidades:  Ingés    Métrico   Ambas
Diario Semanal Mensual Anual
  Máxima: Mínima: Promedio:
Temperatura: 69.6 °F 53.6 °F 61.3 °F
Punto de rocio: 50.4 °F 41.5 °F 45.7 °F
Humedad: 74% 39% 57%
Velocidad viento: 8.5mph 0mph 4.3mph
Racha viento: 17.5mph - -
Viento- - SO
Presión: 30 in 29.8 in -
Precipitación: 0 in    
 
 
Tabla de datos para Diciembre 13, 2019
Hora Temperatura Punto de rocio Presión Viento Velocidad viento Racha viento Humedad Intensidad lluvia(por hora) Nubes
00:04 54 °F 41.5 °F 29.9 in OSO 3.9 mph 7 mph 62.8% 0 in
00:09 54.1 °F 41.5 °F 29.9 in Oeste 4.3 mph 6 mph 62.2% 0 in
00:14 54.1 °F 41.7 °F 29.9 in OSO 3.9 mph 8.1 mph 63% 0 in
00:19 54.3 °F 41.7 °F 29.9 in SO 3.6 mph 10.4 mph 62.5% 0 in
00:24 55 °F 41.9 °F 29.9 in SO 5.2 mph 12.7 mph 61.5% 0 in
00:29 55.8 °F 42.1 °F 29.9 in SO 6.4 mph 13 mph 60.2% 0 in
00:34 56.1 °F 42.1 °F 29.9 in SO 7 mph 13 mph 59.2% 0 in
00:39 56.5 °F 42.3 °F 29.9 in SO 7.4 mph 13 mph 59% 0 in
00:44 56.5 °F 42.3 °F 29.9 in OSO 7.5 mph 13 mph 59% 0 in
00:49 56.5 °F 42.4 °F 29.9 in OSO 7.6 mph 13 mph 59% 0 in
00:54 56.7 °F 42.4 °F 29.9 in SO 7.2 mph 12 mph 59% 0 in
00:59 56.8 °F 42.6 °F 29.9 in SO 6.9 mph 10.4 mph 59% 0 in
01:04 57 °F 42.8 °F 29.9 in SO 5.8 mph 10 mph 59% 0 in
01:09 57 °F 42.4 °F 29.9 in SO 5.2 mph 9.7 mph 58.1% 0 in
01:14 57.2 °F 42.4 °F 29.9 in OSO 5.2 mph 10.4 mph 58% 0 in
01:19 57.2 °F 42.8 °F 29.9 in OSO 5.2 mph 10.4 mph 58.7% 0 in
01:24 57 °F 42.8 °F 29.9 in Oeste 5.8 mph 10.4 mph 59% 0 in
01:29 56.7 °F 42.8 °F 29.9 in Oeste 6.2 mph 10.4 mph 59.4% 0 in
01:34 56.3 °F 42.6 °F 29.9 in Oeste 5.7 mph 8.5 mph 60% 0 in
01:39 55.9 °F 42.6 °F 29.9 in Oeste 5.4 mph 9 mph 60.7% 0 in
01:44 55.6 °F 42.3 °F 29.9 in Oeste 5 mph 9.7 mph 61.2% 0 in
01:49 55 °F 42.3 °F 29.9 in ONO 4.7 mph 10 mph 62% 0 in
01:54 54.9 °F 42.3 °F 29.9 in Oeste 4.5 mph 8 mph 62.4% 0 in
01:59 54.5 °F 42.3 °F 29.9 in SO 4.3 mph 5.8 mph 63% 0 in
02:04 54.1 °F 42.1 °F 29.9 in Sur 3.4 mph 6 mph 63.5% 0 in
02:09 54.1 °F 42.3 °F 29.9 in SE 2.9 mph 5 mph 64% 0 in
02:14 54.1 °F 42.4 °F 29.9 in SE 2.4 mph 5 mph 64.6% 0 in
02:19 54.1 °F 42.6 °F 29.9 in Sur 2 mph 5 mph 65% 0 in
02:24 54.1 °F 42.6 °F 29.9 in Oeste 2.2 mph 4.7 mph 65% 0 in
02:29 54.1 °F 42.6 °F 29.9 in Oeste 2.4 mph 5.2 mph 65% 0 in
02:34 54 °F 42.6 °F 29.9 in ONO 2.8 mph 5.2 mph 65% 0 in
02:39 54 °F 42.6 °F 29.9 in ONO 3.1 mph 5.2 mph 65.2% 0 in
02:44 54 °F 43 °F 29.9 in OSO 3 mph 5.4 mph 66% 0 in
02:49 54.1 °F 43 °F 29.9 in SSO 2.9 mph 10.4 mph 66% 0 in
02:54 54.9 °F 43.3 °F 29.9 in SSO 3.9 mph 10 mph 65.2% 0 in
02:59 55 °F 43.5 °F 29.9 in SO 4.7 mph 7 mph 64.9% 0 in
03:04 55 °F 43.2 °F 29.9 in OSO 2.9 mph 4 mph 64.2% 0 in
03:09 54.9 °F 43.2 °F 29.9 in OSO 1.8 mph 2.3 mph 65% 0 in
03:14 54.3 °F 43.2 °F 29.9 in OSO 0.7 mph 3.1 mph 65.9% 0 in
03:19 54.1 °F 43.2 °F 29.9 in Calm   3.5 mph 66.5% 0 in
03:24 54 °F 43.2 °F 29.9 in Calm   3 mph 67% 0 in
03:29 53.8 °F 43.2 °F 29.9 in Calm   3.6 mph 67.3% 0 in
03:34 53.6 °F 43.3 °F 29.9 in NNE 1.1 mph 4 mph 68% 0 in
03:39 53.6 °F 43.3 °F 29.9 in NE 1.8 mph 5.2 mph 68.1% 0 in
03:44 54.1 °F 44.1 °F 29.9 in OSO 2.2 mph 10.4 mph 68.7% 0 in
03:49 55.9 °F 44.6 °F 29.9 in SO 2.4 mph 10.7 mph 65.8% 0 in
03:54 57.2 °F 44.8 °F 29.9 in SO 4.5 mph 11 mph 63.2% 0 in
03:59 57.9 °F 44.8 °F 29.9 in SO 5.9 mph 11.5 mph 61.5% 0 in
04:04 58.5 °F 44.8 °F 29.9 in SO 5.6 mph 12 mph 60.5% 0 in
04:09 58.6 °F 44.8 °F 29.9 in SO 5.4 mph 10 mph 60% 0 in
04:14 58.5 °F 44.6 °F 29.9 in Sur 4.6 mph 8 mph 60% 0 in
04:19 57.7 °F 44.4 °F 29.9 in SO 4 mph 9.2 mph 61.1% 0 in
04:24 57.6 °F 44.6 °F 29.9 in SSO 3.8 mph 9.2 mph 62% 0 in
04:29 57.7 °F 44.8 °F 29.8 in SSO 3.6 mph 11.5 mph 62% 0 in
04:34 57.7 °F 44.8 °F 29.8 in SO 4.9 mph 12 mph 62% 0 in
04:39 57.7 °F 44.8 °F 29.8 in SO 5.9 mph 12 mph 62% 0 in
04:44 57.7 °F 44.8 °F 29.8 in OSO 5.9 mph 11.8 mph 62% 0 in
04:49 57.9 °F 45 °F 29.8 in SO 5.9 mph 12 mph 62% 0 in
04:54 57.9 °F 45.1 °F 29.8 in OSO 5.9 mph 10 mph 62.2% 0 in
04:59 58.1 °F 45.1 °F 29.8 in ONO 5.9 mph 10 mph 62% 0 in
05:04 57.9 °F 45.1 °F 29.8 in NO 4.5 mph 5 mph 62.6% 0 in
05:09 57.7 °F 45.1 °F 29.8 in ONO 3.6 mph 5 mph 63% 0 in
05:14 57.6 °F 45.1 °F 29.8 in ONO 3.2 mph 5 mph 63.3% 0 in
05:19 57.6 °F 45.5 °F 29.8 in ONO 2.9 mph 5 mph 64% 0 in
05:24 57.4 °F 45.3 °F 29.8 in Oeste 2.2 mph 4.6 mph 64% 0 in
05:29 57.4 °F 45.3 °F 29.8 in SO 1.8 mph 5 mph 64.1% 0 in
05:34 57.4 °F 45.7 °F 29.8 in SSO 2.4 mph 5.2 mph 65% 0 in
05:39 57.6 °F 45.7 °F 29.8 in SO 2.9 mph 6.2 mph 64.5% 0 in
05:44 57.7 °F 45.7 °F 29.8 in SO 3 mph 6 mph 64% 0 in
05:49 57.7 °F 45.7 °F 29.8 in OSO 3.1 mph 6 mph 64% 0 in
05:54 57.4 °F 45.1 °F 29.8 in ESE 2.5 mph 5.8 mph 63.7% 0 in
05:59 56.7 °F 45.3 °F 29.8 in ESE 2 mph 6 mph 65.7% 0 in
06:04 56.5 °F 45.3 °F 29.8 in Este 2.2 mph 5 mph 66.2% 0 in
06:09 56.1 °F 45.1 °F 29.9 in Este 2.4 mph 5 mph 66.6% 0 in
06:14 56.1 °F 45.3 °F 29.9 in Este 2.4 mph 5 mph 67% 0 in
06:19 56.3 °F 45.7 °F 29.9 in Este 2.4 mph 4.6 mph 67.4% 0 in
06:24 56.7 °F 45.9 °F 29.9 in Este 2.1 mph 5 mph 67% 0 in
06:29 56.8 °F 45.9 °F 29.9 in Este 1.8 mph 2 mph 66.6% 0 in
06:34 57 °F 45.9 °F 29.9 in Este 0.7 mph 3.1 mph 66% 0 in
06:39 57.2 °F 45.9 °F 29.9 in Calm   3.5 mph 65.8% 0 in
06:44 57.4 °F 45.7 °F 29.9 in Este 0.8 mph 4.6 mph 65% 0 in
06:49 57.7 °F 45.9 °F 29.9 in Sur 1.4 mph 5 mph 64.8% 0 in
06:54 57.7 °F 45.7 °F 29.9 in SSO 2.3 mph 6.2 mph 64.4% 0 in
06:59 57.7 °F 46 °F 29.9 in SSO 2.9 mph 6 mph 64.9% 0 in
07:04 57.9 °F 45.9 °F 29.9 in SSE 2.9 mph 5.2 mph 64.1% 0 in
07:09 58.1 °F 45.9 °F 29.9 in SE 2.9 mph 5.9 mph 63.7% 0 in
07:14 57.2 °F 45.5 °F 29.9 in ESE 3.7 mph 8.1 mph 65.1% 0 in
07:19 56.1 °F 45.3 °F 29.9 in ESE 4.3 mph 8.1 mph 67.4% 0 in
07:24 55.6 °F 45.7 °F 29.9 in ESE 5.4 mph 8.7 mph 69.1% 0 in
07:29 55.4 °F 45.9 °F 29.9 in ESE 6.2 mph 9 mph 70.3% 0 in
07:34 56.1 °F 46.4 °F 29.9 in ESE 5.1 mph 6 mph 70% 0 in
07:39 56.8 °F 46.4 °F 29.9 in SE 4.3 mph 8.1 mph 68.2% 0 in
07:44 57.4 °F 46.6 °F 29.8 in SSE 4.1 mph 8.1 mph 67.4% 0 in
07:49 57.4 °F 46.6 °F 29.8 in SSE 4 mph 8 mph 67% 0 in
07:54 57.4 °F 46.4 °F 29.8 in SSE 3.4 mph 5 mph 67.2% 0 in
07:59 57.2 °F 46.4 °F 29.8 in Sur 2.9 mph 4 mph 67.4% 0 in
08:04 57 °F 46.4 °F 29.8 in ONO 2.2 mph 4 mph 67.6% 0 in
08:09 56.8 °F 46.4 °F 29.9 in ONO 1.8 mph 4.6 mph 68% 0 in
08:14 56.7 °F 46.4 °F 29.9 in NO 1.9 mph 5 mph 68.4% 0 in
08:19 56.7 °F 46.4 °F 29.9 in NO 2 mph 5 mph 69% 0 in
08:24 56.7 °F 46.4 °F 29.9 in NO 2.5 mph 5 mph 68.6% 0 in
08:29 56.1 °F 45.9 °F 29.9 in ONO 2.9 mph 5.8 mph 68.2% 0 in
08:34 55.4 °F 45.5 °F 29.9 in Oeste 2.6 mph 6 mph 69.2% 0 in
08:39 54.9 °F 45.5 °F 29.9 in NO 2.4 mph 5 mph 70.6% 0 in
08:44 54.7 °F 45.5 °F 29.9 in NO 1.8 mph 5.4 mph 71.3% 0 in
08:49 54.3 °F 45.5 °F 29.9 in Oeste 1.4 mph 6 mph 72% 0 in
08:54 54.1 °F 45.5 °F 29.9 in OSO 1.7 mph 5 mph 72.5% 0 in
08:59 54.1 °F 45.7 °F 29.9 in OSO 2 mph 3.6 mph 73% 0 in
09:04 54.3 °F 45.9 °F 29.9 in ONO 1.6 mph 4 mph 73% 0 in
09:09 54.3 °F 45.9 °F 29.9 in ONO 1.4 mph 3.5 mph 73% 0 in
09:14 54.3 °F 45.9 °F 29.9 in SSO 1.7 mph 5.2 mph 73% 0 in
09:19 54.3 °F 45.9 °F 29.9 in ESE 2 mph 5.2 mph 73% 0 in
09:24 54.3 °F 46 °F 29.9 in ESE 2.9 mph 5.9 mph 73.7% 0 in
09:29 54.7 °F 46.6 °F 29.9 in ESE 3.6 mph 6 mph 74% 0 in
09:34 55 °F 46.8 °F 29.9 in ESE 3.9 mph 6 mph 73.5% 0 in
09:39 55.6 °F 47.1 °F 29.9 in ESE 4 mph 6 mph 73% 0 in
09:44 55.9 °F 47.1 °F 29.9 in ESE 3.5 mph 5.8 mph 72.1% 0 in
09:49 56.3 °F 47.5 °F 29.9 in ESE 3.1 mph 6 mph 71.8% 0 in
09:54 56.8 °F 47.7 °F 29.9 in SE 3 mph 5.8 mph 70.9% 0 in
09:59 57.7 °F 47.7 °F 29.9 in ESE 2.9 mph 6 mph 69.4% 0 in
10:04 58.3 °F 47.8 °F 29.9 in ESE 3 mph 6 mph 68.4% 0 in
10:09 58.5 °F 47.8 °F 29.9 in SE 3.1 mph 5 mph 68% 0 in
10:14 58.5 °F 47.8 °F 29.9 in SSE 3.1 mph 5.8 mph 68% 0 in
10:19 58.6 °F 48 °F 29.9 in SSE 3.1 mph 6 mph 68% 0 in
10:24 58.8 °F 48.2 °F 29.9 in Sur 3.6 mph 6 mph 67.7% 0 in
10:29 59.2 °F 48.2 °F 29.9 in Sur 4 mph 6 mph 67.3% 0 in
10:34 59.5 °F 48.6 °F 29.9 in Sur 3.5 mph 5 mph 67% 0 in
10:39 59.7 °F 48.6 °F 29.9 in Sur 3.1 mph 5 mph 66.7% 0 in
10:44 60.1 °F 48.7 °F 29.9 in Sur 2.7 mph 5 mph 66.2% 0 in
10:49 60.3 °F 49.3 °F 29.9 in SSO 2.4 mph 4.6 mph 67% 0 in
10:54 60.4 °F 49.5 °F 29.9 in North 2.2 mph 5 mph 67% 0 in
10:59 60.6 °F 49.6 °F 29.9 in North 2 mph 3 mph 67% 0 in
11:04 61 °F 49.6 °F 29.9 in NO 1.6 mph 4.7 mph 66.5% 0 in
11:09 61.2 °F 50.2 °F 29.9 in NO 1.4 mph 5 mph 67.3% 0 in
11:14 61.2 °F 50.4 °F 29.9 in Oeste 2.2 mph 5.2 mph 67.7% 0 in
11:19 61.2 °F 50.2 °F 29.9 in Oeste 2.9 mph 5 mph 67% 0 in
11:24 61.3 °F 50.4 °F 29.9 in ONO 2.6 mph 5 mph 67% 0 in
11:29 61.3 °F 50.4 °F 29.9 in ONO 2.4 mph 5 mph 67% 0 in
11:34 61.3 °F 50.4 °F 29.9 in ONO 1.8 mph 4.6 mph 67% 0 in
11:39 61.3 °F 50 °F 29.9 in Oeste 1.4 mph 5 mph 66% 0 in
11:44 61.5 °F 49.8 °F 29.9 in Oeste 2 mph 5 mph 65.3% 0 in
11:49 61.9 °F 50 °F 29.9 in Oeste 2.4 mph 4 mph 65% 0 in
11:54 62.2 °F 50.2 °F 29.9 in Oeste 2.2 mph 3.6 mph 64.9% 0 in
11:59 62.4 °F 49.8 °F 29.9 in Oeste 2 mph 4.6 mph 63.6% 0 in
12:04 62.8 °F 49.6 °F 29.9 in OSO 1.9 mph 5 mph 62.4% 0 in
12:09 63.1 °F 49.8 °F 29.9 in SSO 1.8 mph 5 mph 61.8% 0 in
12:14 63.5 °F 49.1 °F 29.9 in SSO 2.4 mph 5.2 mph 59.7% 0 in
12:19 63.9 °F 48.9 °F 29.9 in SSO 2.9 mph 5.2 mph 58.2% 0 in
12:24 64 °F 49.3 °F 29.9 in Sur 3 mph 5.2 mph 58.5% 0 in
12:29 64.4 °F 49.3 °F 29.9 in Sur 3.1 mph 5 mph 58% 0 in
12:34 64.8 °F 49.5 °F 29.9 in SSE 3.1 mph 5.8 mph 57.7% 0 in
12:39 64.9 °F 48.7 °F 29.9 in SE 3.1 mph 9.7 mph 55.7% 0 in
12:44 65.5 °F 48.4 °F 29.9 in Sur 3.8 mph 10 mph 54.1% 0 in
12:49 66 °F 47.3 °F 29.9 in SSO 4.3 mph 9.2 mph 50.7% 0 in
12:54 66.7 °F 47.1 °F 29.9 in SO 4.5 mph 9.2 mph 49.2% 0 in
12:59 67.1 °F 47.7 °F 29.9 in SSE 4.7 mph 9 mph 49.6% 0 in
13:04 67.5 °F 47.8 °F 29.9 in ENE 4.7 mph 9 mph 49.5% 0 in
13:09 67.6 °F 47.8 °F 29.9 in North 4.7 mph 7 mph 49% 0 in
13:14 68 °F 47.8 °F 29.9 in Oeste 3.4 mph 6.9 mph 48.6% 0 in
13:19 68.4 °F 47.8 °F 29.9 in Este 2.4 mph 7 mph 48% 0 in
13:24 68.5 °F 47.8 °F 29.9 in ONO 2.4 mph 6 mph 47.7% 0 in
13:29 68.7 °F 47.7 °F 29.9 in OSO 2.4 mph 9.7 mph 46.8% 0 in
13:34 68.9 °F 47.1 °F 29.9 in ONO 2.7 mph 10 mph 45.6% 0 in
13:39 68.9 °F 47.3 °F 29.9 in SO 2.9 mph 15 mph 46.1% 0 in
13:44 68.5 °F 48 °F 29.9 in OSO 4.7 mph 15 mph 47.9% 0 in
13:49 68.5 °F 46.8 °F 29.9 in OSO 5.9 mph 14.7 mph 45.6% 0 in
13:54 68.7 °F 45.7 °F 29.9 in Oeste 5.6 mph 15 mph 43.6% 0 in
13:59 68.9 °F 45.5 °F 29.9 in OSO 5.4 mph 15 mph 43.1% 0 in
14:04 69.1 °F 45.7 °F 29.9 in Oeste 5.9 mph 14 mph 43.1% 0 in
14:09 69.1 °F 45.7 °F 29.9 in OSO 6.2 mph 12.7 mph 43% 0 in
14:14 69.3 °F 45.5 °F 29.9 in SO 5.3 mph 13 mph 42.7% 0 in
14:19 69.3 °F 44.8 °F 29.9 in OSO 4.7 mph 11.8 mph 41.3% 0 in
14:24 69.4 °F 44.8 °F 29.9 in Oeste 5.6 mph 12 mph 41% 0 in
14:29 69.6 °F 44.4 °F 29.9 in Oeste 6.2 mph 17.5 mph 40.3% 0 in
14:34 69.6 °F 43.5 °F 29.9 in Oeste 7 mph 17.5 mph 39% 0 in
14:39 69.6 °F 43.7 °F 29.9 in Oeste 7.6 mph 17 mph 39.3% 0 in
14:44 69.6 °F 44.2 °F 29.9 in ONO 7.5 mph 14 mph 40.1% 0 in
14:49 69.6 °F 44.4 °F 29.9 in Oeste 7.4 mph 11.5 mph 40.2% 0 in
14:54 69.6 °F 44.4 °F 29.9 in Oeste 6.2 mph 12 mph 40.3% 0 in
14:59 69.4 °F 44.2 °F 29.9 in Oeste 5.4 mph 16.1 mph 40.2% 0 in
15:04 69.4 °F 44.6 °F 29.9 in Oeste 6 mph 16 mph 41% 0 in
15:09 69.3 °F 44.6 °F 29.9 in ONO 6.4 mph 9.7 mph 41% 0 in
15:14 69.3 °F 44.4 °F 29.9 in ONO 5.4 mph 11.5 mph 41% 0 in
15:19 69.3 °F 44.4 °F 29.9 in SO 4.7 mph 12 mph 41% 0 in
15:24 69.3 °F 44.6 °F 29.9 in Oeste 5.1 mph 11.5 mph 41.1% 0 in
15:29 69.3 °F 44.6 °F 29.9 in Oeste 5.4 mph 12 mph 41.1% 0 in
15:34 69.3 °F 44.4 °F 29.9 in ONO 4 mph 7 mph 40.9% 0 in
15:39 69.3 °F 44.4 °F 29.9 in OSO 3.1 mph 10.7 mph 40.9% 0 in
15:44 69.3 °F 44.6 °F 29.9 in SSO 3.8 mph 11 mph 41% 0 in
15:49 69.3 °F 44.4 °F 29.9 in Oeste 4.3 mph 7 mph 41% 0 in
15:54 69.3 °F 44.6 °F 29.9 in Oeste 3.2 mph 5.9 mph 41.1% 0 in
15:59 69.3 °F 45.1 °F 29.9 in Oeste 2.4 mph 6 mph 42% 0 in
16:04 69.3 °F 44.8 °F 29.9 in SO 2.7 mph 5.9 mph 41.5% 0 in
16:09 69.1 °F 45.1 °F 29.9 in ESE 2.9 mph 6.2 mph 42% 0 in
16:14 69.1 °F 45.5 °F 29.9 in SE 3 mph 6 mph 42.7% 0 in
16:19 68.9 °F 45.5 °F 29.9 in SE 3.1 mph 6 mph 43% 0 in
16:24 68.9 °F 45.7 °F 29.9 in SSE 2.3 mph 5.9 mph 43.4% 0 in
16:29 68.7 °F 45.9 °F 29.9 in SSO 1.8 mph 6 mph 44% 0 in
16:34 68.7 °F 45.9 °F 29.9 in Sur 2.9 mph 6.4 mph 44% 0 in
16:39 68.7 °F 45.5 °F 29.9 in SSO 3.6 mph 7.4 mph 43.4% 0 in
16:44 68.7 °F 45.5 °F 29.9 in SSO 4 mph 7 mph 43.3% 0 in
16:49 68.7 °F 45.5 °F 29.9 in SSO 4.3 mph 8.5 mph 43.4% 0 in
16:54 68.5 °F 45.7 °F 29.9 in SO 4.8 mph 9.2 mph 43.7% 0 in
16:59 68.5 °F 45.5 °F 29.9 in SO 5.2 mph 13 mph 43.5% 0 in
17:04 68.5 °F 45.1 °F 29.9 in SO 5.8 mph 13 mph 43% 0 in
17:09 68.4 °F 45.5 °F 29.9 in OSO 6.2 mph 11.5 mph 43.8% 0 in
17:14 68.4 °F 45.5 °F 29.9 in OSO 6.3 mph 12 mph 44% 0 in
17:19 68.2 °F 45.3 °F 29.9 in OSO 6.4 mph 12 mph 44% 0 in
17:24 67.8 °F 45.1 °F 29.9 in OSO 7 mph 13 mph 44.1% 0 in
17:29 67.8 °F 45.3 °F 29.9 in OSO 7.4 mph 13.7 mph 44.5% 0 in
17:34 67.8 °F 45.5 °F 29.9 in OSO 7.5 mph 14 mph 44.6% 0 in
17:39 67.6 °F 45.5 °F 29.9 in OSO 7.6 mph 14 mph 45% 0 in
17:44 67.6 °F 45.5 °F 29.9 in OSO 7 mph 13 mph 45% 0 in
17:49 67.5 °F 45.3 °F 29.9 in OSO 6.4 mph 13 mph 45% 0 in
17:54 67.3 °F 45.7 °F 29.9 in SO 6.4 mph 11 mph 45.9% 0 in
17:59 66.9 °F 45.5 °F 29.9 in SO 6.4 mph 9.2 mph 46% 0 in
18:04 66.7 °F 45.3 °F 29.9 in SO 5.8 mph 10.4 mph 46% 0 in
18:09 66.7 °F 45.9 °F 29.9 in OSO 5.4 mph 10 mph 46.9% 0 in
18:14 66.6 °F 45.7 °F 29.9 in OSO 4.6 mph 9.2 mph 47% 0 in
18:19 66.4 °F 45.7 °F 29.9 in SO 4 mph 9 mph 47.5% 0 in
18:24 66.2 °F 45.9 °F 30 in SSO 3.8 mph 6.9 mph 48% 0 in
18:29 66.2 °F 45.9 °F 30 in SSO 3.6 mph 7 mph 48% 0 in
18:34 66.2 °F 45.9 °F 30 in SSO 4 mph 10.4 mph 48% 0 in
18:39 66.4 °F 46 °F 30 in OSO 4.3 mph 12.5 mph 48% 0 in
18:44 66.6 °F 45.9 °F 30 in Oeste 5.8 mph 17.5 mph 47.1% 0 in
18:49 66.6 °F 45.7 °F 30 in Oeste 6.9 mph 17 mph 47% 0 in
18:54 66.6 °F 45.7 °F 30 in Oeste 6.6 mph 16.1 mph 47% 0 in
18:59 66.7 °F 45.9 °F 30 in Oeste 6.4 mph 16 mph 47% 0 in
19:04 66.6 °F 46 °F 30 in Oeste 6.4 mph 14 mph 47.9% 0 in
19:09 66.4 °F 46 °F 30 in Oeste 6.4 mph 12.5 mph 48% 0 in
19:14 66.4 °F 46 °F 30 in Oeste 7 mph 13.8 mph 47.9% 0 in
19:19 66.6 °F 45.7 °F 30 in Oeste 7.4 mph 14 mph 47.2% 0 in
19:24 66.6 °F 45.7 °F 30 in OSO 7.1 mph 15.2 mph 47% 0 in
19:29 66.6 °F 45.7 °F 30 in SO 6.9 mph 15 mph 47% 0 in
19:34 66.4 °F 46 °F 30 in ESE 6.3 mph 14 mph 48.1% 0 in
19:39 65.7 °F 46.2 °F 30 in SE 5.9 mph 8.5 mph 49.5% 0 in
19:44 64.8 °F 46.2 °F 30 in SE 4.5 mph 10.7 mph 51.2% 0 in
19:49 63.9 °F 46.4 °F 30 in SSE 3.6 mph 11.8 mph 52.9% 0 in
19:54 63.5 °F 46.6 °F 30 in SSE 5.1 mph 12 mph 54% 0 in
19:59 63.3 °F 46.4 °F 30 in Sur 6.2 mph 9.2 mph 54% 0 in
20:04 63.3 °F 46.4 °F 30 in Sur 6.2 mph 9.7 mph 54% 0 in
20:09 63.5 °F 46.6 °F 30 in Sur 6.2 mph 10 mph 54% 0 in
20:14 63.7 °F 46.4 °F 30 in SSE 6 mph 12.3 mph 53.2% 0 in
20:19 64 °F 46.4 °F 30 in SSE 5.9 mph 17.3 mph 52.4% 0 in
20:24 64.8 °F 46.2 °F 30 in Sur 7.4 mph 17 mph 50.8% 0 in
20:29 65.3 °F 46.2 °F 30 in SSO 8.5 mph 14 mph 50% 0 in
20:34 64.9 °F 46.2 °F 30 in SSO 8.3 mph 13 mph 50.7% 0 in
20:39 64.6 °F 46 °F 30 in SO 8.1 mph 13 mph 51% 0 in
20:44 64.6 °F 46 °F 30 in OSO 8.1 mph 13 mph 51% 0 in
20:49 64.6 °F 46 °F 30 in OSO 8.1 mph 12.7 mph 51% 0 in
20:54 64.6 °F 46 °F 30 in OSO 7.8 mph 13 mph 51% 0 in
20:59 64.4 °F 45.9 °F 30 in OSO 7.6 mph 13 mph 51% 0 in
21:04 64.2 °F 45.9 °F 30 in OSO 7.1 mph 13 mph 51.5% 0 in
21:09 63.9 °F 45.9 °F 30 in Oeste 6.9 mph 9 mph 52% 0 in
21:14 63.5 °F 46 °F 30 in Oeste 6 mph 8.1 mph 52.9% 0 in
21:19 63.1 °F 45.7 °F 30 in Oeste 5.4 mph 8.1 mph 53% 0 in
21:24 63 °F 46 °F 30 in OSO 5 mph 8.1 mph 54% 0 in
21:29 63 °F 46 °F 30 in OSO 4.7 mph 8.7 mph 54% 0 in
21:34 63 °F 45.9 °F 30 in SO 5.1 mph 9.2 mph 53.6% 0 in
21:39 63 °F 45.7 °F 30 in OSO 5.4 mph 9 mph 53% 0 in
21:44 63.1 °F 45.7 °F 30 in OSO 5.4 mph 8 mph 53% 0 in
21:49 63 °F 45.7 °F 30 in Oeste 5.4 mph 7 mph 53% 0 in
21:54 62.8 °F 45.9 °F 30 in Oeste 5 mph 7 mph 53.8% 0 in
21:59 62.8 °F 45.9 °F 30 in Oeste 4.7 mph 8.1 mph 54% 0 in
22:04 62.6 °F 45.7 °F 30 in Oeste 4.7 mph 8 mph 54% 0 in
22:09 62.4 °F 45.5 °F 30 in OSO 4.7 mph 7 mph 54% 0 in
22:14 62.2 °F 45.9 °F 30 in OSO 4.7 mph 10.4 mph 54.8% 0 in
22:19 62.2 °F 45.9 °F 30 in ONO 4.7 mph 10 mph 55% 0 in
22:24 62.1 °F 45.7 °F 30 in Oeste 4.7 mph 8 mph 55% 0 in
22:29 62.1 °F 45.7 °F 30 in SO 4.7 mph 7 mph 55% 0 in
22:34 62.1 °F 45.7 °F 30 in SO 3.7 mph 6 mph 55% 0 in
22:39 62.1 °F 45.9 °F 30 in SSO 3.1 mph 6 mph 55.5% 0 in
22:44 61.3 °F 45.9 °F 30 in ESE 2.7 mph 5.9 mph 56.9% 0 in
22:49 60.6 °F 45.9 °F 30 in SE 2.4 mph 7.4 mph 58.2% 0 in
22:54 60.4 °F 46 °F 30 in SSE 3.5 mph 8.5 mph 59% 0 in
22:59 60.4 °F 45.9 °F 30 in Sur 4.3 mph 10.4 mph 58.5% 0 in
23:04 60.8 °F 45.9 °F 30 in SSO 5.6 mph 10.4 mph 57.8% 0 in
23:09 61.5 °F 45.9 °F 30 in OSO 6.4 mph 11.5 mph 56.5% 0 in
23:14 62.1 °F 45.9 °F 30 in OSO 6.4 mph 14.7 mph 55.1% 0 in
23:19 62.4 °F 45.9 °F 30 in OSO 6.4 mph 16.1 mph 54.6% 0 in
23:24 63 °F 45.9 °F 30 in OSO 7.6 mph 16 mph 54% 0 in
23:29 63 °F 45.9 °F 30 in SO 8.5 mph 13 mph 54% 0 in
23:34 62.8 °F 45.9 °F 30 in SO 7.3 mph 13 mph 54% 0 in
23:39 62.6 °F 45.7 °F 30 in SO 6.4 mph 10 mph 54% 0 in
23:44 62.4 °F 45.5 °F 30 in SO 6.3 mph 11.8 mph 54% 0 in
23:49 62.4 °F 45.7 °F 30 in SO 6.2 mph 12 mph 54.3% 0 in
23:54 62.2 °F 45.9 °F 30 in SSO 6.6 mph 13.8 mph 55% 0 in
23:59 62.4 °F 45.7 °F 30 in SSO 6.9 mph 14 mph 54.2% 0 in
Murcia-Puente Tocinos, España
Compliments of Weather Underground - 3 mb

La estación de MeteoMurcia.com, publica sus datos en los siguientes proyectos:

Weather Underground PWS IMURCIAP2 Meteoclimatic www.awekas.at

W3Counter
Web Analytics